sensor_id;sensor_type;location;lat;lon;timestamp;P1;durP1;ratioP1;P2;durP2;ratioP2
944;SDS011;459;48.676;9.034;2022-10-18T00:02:00;9.07;;;4.40;;
944;SDS011;459;48.676;9.034;2022-10-18T00:04:25;4.60;;;3.70;;
944;SDS011;459;48.676;9.034;2022-10-18T00:06:51;8.10;;;4.17;;
944;SDS011;459;48.676;9.034;2022-10-18T00:09:16;7.87;;;4.87;;
944;SDS011;459;48.676;9.034;2022-10-18T00:11:41;6.80;;;4.70;;
944;SDS011;459;48.676;9.034;2022-10-18T00:14:07;5.00;;;4.07;;
944;SDS011;459;48.676;9.034;2022-10-18T00:16:32;12.83;;;5.73;;
944;SDS011;459;48.676;9.034;2022-10-18T00:18:57;6.57;;;4.10;;
944;SDS011;459;48.676;9.034;2022-10-18T00:21:23;6.10;;;4.57;;
944;SDS011;459;48.676;9.034;2022-10-18T00:23:49;8.20;;;4.10;;
944;SDS011;459;48.676;9.034;2022-10-18T00:26:16;5.20;;;4.37;;
944;SDS011;459;48.676;9.034;2022-10-18T00:28:42;6.37;;;5.60;;
944;SDS011;459;48.676;9.034;2022-10-18T00:31:11;5.87;;;4.23;;
944;SDS011;459;48.676;9.034;2022-10-18T00:33:37;4.50;;;4.10;;
944;SDS011;459;48.676;9.034;2022-10-18T00:36:02;6.47;;;4.27;;
944;SDS011;459;48.676;9.034;2022-10-18T00:38:27;8.63;;;5.00;;
944;SDS011;459;48.676;9.034;2022-10-18T00:40:52;6.43;;;5.00;;
944;SDS011;459;48.676;9.034;2022-10-18T00:43:17;6.00;;;4.73;;
944;SDS011;459;48.676;9.034;2022-10-18T00:45:42;5.00;;;4.50;;
944;SDS011;459;48.676;9.034;2022-10-18T00:48:08;4.40;;;4.00;;
944;SDS011;459;48.676;9.034;2022-10-18T00:50:33;7.23;;;4.77;;
944;SDS011;459;48.676;9.034;2022-10-18T00:53:00;5.07;;;4.03;;
944;SDS011;459;48.676;9.034;2022-10-18T00:55:26;5.40;;;4.10;;
944;SDS011;459;48.676;9.034;2022-10-18T00:57:52;5.27;;;4.77;;
944;SDS011;459;48.676;9.034;2022-10-18T01:00:18;5.57;;;4.13;;
944;SDS011;459;48.676;9.034;2022-10-18T01:02:44;5.63;;;4.43;;
944;SDS011;459;48.676;9.034;2022-10-18T01:05:10;7.30;;;4.60;;
944;SDS011;459;48.676;9.034;2022-10-18T01:07:40;4.87;;;4.37;;
944;SDS011;459;48.676;9.034;2022-10-18T01:12:52;7.63;;;4.40;;
944;SDS011;459;48.676;9.034;2022-10-18T01:15:23;6.60;;;4.40;;
944;SDS011;459;48.676;9.034;2022-10-18T01:25:50;8.93;;;5.30;;
944;SDS011;459;48.676;9.034;2022-10-18T01:28:23;5.60;;;4.10;;
944;SDS011;459;48.676;9.034;2022-10-18T01:33:19;6.63;;;4.47;;
944;SDS011;459;48.676;9.034;2022-10-18T01:35:47;4.57;;;4.17;;
944;SDS011;459;48.676;9.034;2022-10-18T01:38:13;5.10;;;4.60;;
944;SDS011;459;48.676;9.034;2022-10-18T01:40:41;6.87;;;4.53;;
944;SDS011;459;48.676;9.034;2022-10-18T01:43:07;7.80;;;4.00;;
944;SDS011;459;48.676;9.034;2022-10-18T01:45:34;6.23;;;4.73;;
944;SDS011;459;48.676;9.034;2022-10-18T01:47:59;7.93;;;4.93;;
944;SDS011;459;48.676;9.034;2022-10-18T01:50:31;5.80;;;4.53;;
944;SDS011;459;48.676;9.034;2022-10-18T01:52:57;6.80;;;4.47;;
944;SDS011;459;48.676;9.034;2022-10-18T01:55:24;5.10;;;4.33;;
944;SDS011;459;48.676;9.034;2022-10-18T01:57:55;5.23;;;4.33;;
944;SDS011;459;48.676;9.034;2022-10-18T02:00:22;6.03;;;4.53;;
944;SDS011;459;48.676;9.034;2022-10-18T02:02:56;4.10;;;3.67;;
944;SDS011;459;48.676;9.034;2022-10-18T02:05:29;5.20;;;3.80;;
944;SDS011;459;48.676;9.034;2022-10-18T02:07:59;7.97;;;4.23;;
944;SDS011;459;48.676;9.034;2022-10-18T02:13:02;4.93;;;4.47;;
944;SDS011;459;48.676;9.034;2022-10-18T02:15:36;6.23;;;4.80;;
944;SDS011;459;48.676;9.034;2022-10-18T02:18:04;5.60;;;4.37;;
944;SDS011;459;48.676;9.034;2022-10-18T02:20:31;3.73;;;3.37;;
944;SDS011;459;48.676;9.034;2022-10-18T02:22:57;6.63;;;4.50;;
944;SDS011;459;48.676;9.034;2022-10-18T02:25:24;6.20;;;5.13;;
944;SDS011;459;48.676;9.034;2022-10-18T02:27:51;7.13;;;5.07;;
944;SDS011;459;48.676;9.034;2022-10-18T02:30:16;7.00;;;4.33;;
944;SDS011;459;48.676;9.034;2022-10-18T02:35:10;8.38;;;4.57;;
944;SDS011;459;48.676;9.034;2022-10-18T02:37:38;5.50;;;3.77;;
944;SDS011;459;48.676;9.034;2022-10-18T02:40:04;7.43;;;4.70;;
944;SDS011;459;48.676;9.034;2022-10-18T02:42:38;12.67;;;4.97;;
944;SDS011;459;48.676;9.034;2022-10-18T02:45:04;5.40;;;4.90;;
944;SDS011;459;48.676;9.034;2022-10-18T02:47:29;5.50;;;5.00;;
944;SDS011;459;48.676;9.034;2022-10-18T02:49:55;5.70;;;4.20;;
944;SDS011;459;48.676;9.034;2022-10-18T02:52:20;4.70;;;3.87;;
944;SDS011;459;48.676;9.034;2022-10-18T02:54:45;4.90;;;4.13;;
944;SDS011;459;48.676;9.034;2022-10-18T02:57:10;5.63;;;4.17;;
944;SDS011;459;48.676;9.034;2022-10-18T02:59:35;4.60;;;4.17;;
944;SDS011;459;48.676;9.034;2022-10-18T03:02:01;4.97;;;3.93;;
944;SDS011;459;48.676;9.034;2022-10-18T03:04:26;4.43;;;4.03;;
944;SDS011;459;48.676;9.034;2022-10-18T03:06:51;5.80;;;4.10;;
944;SDS011;459;48.676;9.034;2022-10-18T03:09:16;5.97;;;3.93;;
944;SDS011;459;48.676;9.034;2022-10-18T03:11:41;8.40;;;4.80;;
944;SDS011;459;48.676;9.034;2022-10-18T03:14:06;6.87;;;4.10;;
944;SDS011;459;48.676;9.034;2022-10-18T03:16:32;9.13;;;4.17;;
944;SDS011;459;48.676;9.034;2022-10-18T03:18:58;4.20;;;3.80;;
944;SDS011;459;48.676;9.034;2022-10-18T03:21:23;6.10;;;3.60;;
944;SDS011;459;48.676;9.034;2022-10-18T03:23:48;8.00;;;4.67;;
944;SDS011;459;48.676;9.034;2022-10-18T03:26:13;5.00;;;3.63;;
944;SDS011;459;48.676;9.034;2022-10-18T03:28:39;4.53;;;4.13;;
944;SDS011;459;48.676;9.034;2022-10-18T03:31:04;4.30;;;4.00;;
944;SDS011;459;48.676;9.034;2022-10-18T03:33:30;3.67;;;3.37;;
944;SDS011;459;48.676;9.034;2022-10-18T03:35:55;3.93;;;3.53;;
944;SDS011;459;48.676;9.034;2022-10-18T03:38:20;3.93;;;3.27;;
944;SDS011;459;48.676;9.034;2022-10-18T03:40:45;4.30;;;3.90;;
944;SDS011;459;48.676;9.034;2022-10-18T03:43:11;5.03;;;3.87;;
944;SDS011;459;48.676;9.034;2022-10-18T03:45:36;6.27;;;3.33;;
944;SDS011;459;48.676;9.034;2022-10-18T03:48:01;4.20;;;3.37;;
944;SDS011;459;48.676;9.034;2022-10-18T03:50:26;3.90;;;3.50;;
944;SDS011;459;48.676;9.034;2022-10-18T03:52:51;5.63;;;3.40;;
944;SDS011;459;48.676;9.034;2022-10-18T03:55:18;7.27;;;4.00;;
944;SDS011;459;48.676;9.034;2022-10-18T03:57:43;4.43;;;3.80;;
944;SDS011;459;48.676;9.034;2022-10-18T04:00:08;4.80;;;3.43;;
944;SDS011;459;48.676;9.034;2022-10-18T04:02:34;5.07;;;4.57;;
944;SDS011;459;48.676;9.034;2022-10-18T04:04:59;3.60;;;3.20;;
944;SDS011;459;48.676;9.034;2022-10-18T04:07:24;3.97;;;3.60;;
944;SDS011;459;48.676;9.034;2022-10-18T04:09:50;5.60;;;4.27;;
944;SDS011;459;48.676;9.034;2022-10-18T04:12:15;5.27;;;3.53;;
944;SDS011;459;48.676;9.034;2022-10-18T04:14:40;5.40;;;4.90;;
944;SDS011;459;48.676;9.034;2022-10-18T04:17:05;4.90;;;4.03;;
944;SDS011;459;48.676;9.034;2022-10-18T04:19:30;4.23;;;3.73;;
944;SDS011;459;48.676;9.034;2022-10-18T04:21:55;6.80;;;4.40;;
944;SDS011;459;48.676;9.034;2022-10-18T04:24:21;6.70;;;4.00;;
944;SDS011;459;48.676;9.034;2022-10-18T04:26:46;5.40;;;3.30;;
944;SDS011;459;48.676;9.034;2022-10-18T04:29:11;4.73;;;4.33;;
944;SDS011;459;48.676;9.034;2022-10-18T04:31:36;6.80;;;3.70;;
944;SDS011;459;48.676;9.034;2022-10-18T04:34:01;5.10;;;3.40;;
944;SDS011;459;48.676;9.034;2022-10-18T04:36:28;3.90;;;3.60;;
944;SDS011;459;48.676;9.034;2022-10-18T04:38:53;3.50;;;3.20;;
944;SDS011;459;48.676;9.034;2022-10-18T04:41:18;3.87;;;3.47;;
944;SDS011;459;48.676;9.034;2022-10-18T04:43:44;4.00;;;3.60;;
944;SDS011;459;48.676;9.034;2022-10-18T04:46:09;4.70;;;4.07;;
944;SDS011;459;48.676;9.034;2022-10-18T04:48:34;5.40;;;3.97;;
944;SDS011;459;48.676;9.034;2022-10-18T04:50:59;5.60;;;3.93;;
944;SDS011;459;48.676;9.034;2022-10-18T04:53:24;4.77;;;4.27;;
944;SDS011;459;48.676;9.034;2022-10-18T04:55:50;4.50;;;4.00;;
944;SDS011;459;48.676;9.034;2022-10-18T04:58:15;5.00;;;4.10;;
944;SDS011;459;48.676;9.034;2022-10-18T05:00:41;13.33;;;4.77;;
944;SDS011;459;48.676;9.034;2022-10-18T05:03:07;4.53;;;4.13;;
944;SDS011;459;48.676;9.034;2022-10-18T05:05:32;4.77;;;4.27;;
944;SDS011;459;48.676;9.034;2022-10-18T05:07:57;5.63;;;4.97;;
944;SDS011;459;48.676;9.034;2022-10-18T05:10:22;6.03;;;4.50;;
944;SDS011;459;48.676;9.034;2022-10-18T05:12:47;10.87;;;4.63;;
944;SDS011;459;48.676;9.034;2022-10-18T05:15:13;4.23;;;3.87;;
944;SDS011;459;48.676;9.034;2022-10-18T05:17:38;4.43;;;4.00;;
944;SDS011;459;48.676;9.034;2022-10-18T05:20:03;6.33;;;3.87;;
944;SDS011;459;48.676;9.034;2022-10-18T05:22:29;5.50;;;4.57;;
944;SDS011;459;48.676;9.034;2022-10-18T05:24:54;4.27;;;3.90;;
944;SDS011;459;48.676;9.034;2022-10-18T05:27:19;7.30;;;4.83;;
944;SDS011;459;48.676;9.034;2022-10-18T05:29:44;6.57;;;3.93;;
944;SDS011;459;48.676;9.034;2022-10-18T05:32:10;4.67;;;4.10;;
944;SDS011;459;48.676;9.034;2022-10-18T05:34:35;5.93;;;4.03;;
944;SDS011;459;48.676;9.034;2022-10-18T05:37:00;8.63;;;4.80;;
944;SDS011;459;48.676;9.034;2022-10-18T05:39:25;4.30;;;3.90;;
944;SDS011;459;48.676;9.034;2022-10-18T05:41:50;5.90;;;4.20;;
944;SDS011;459;48.676;9.034;2022-10-18T05:44:16;4.77;;;3.73;;
944;SDS011;459;48.676;9.034;2022-10-18T05:46:41;18.27;;;5.03;;
944;SDS011;459;48.676;9.034;2022-10-18T05:49:06;7.37;;;4.53;;
944;SDS011;459;48.676;9.034;2022-10-18T05:51:31;5.10;;;4.60;;
944;SDS011;459;48.676;9.034;2022-10-18T05:53:57;5.07;;;4.10;;
944;SDS011;459;48.676;9.034;2022-10-18T05:56:22;8.93;;;4.60;;
944;SDS011;459;48.676;9.034;2022-10-18T05:58:51;4.90;;;3.60;;
944;SDS011;459;48.676;9.034;2022-10-18T06:01:16;5.40;;;3.83;;
944;SDS011;459;48.676;9.034;2022-10-18T06:03:41;5.93;;;4.93;;
944;SDS011;459;48.676;9.034;2022-10-18T06:06:08;6.90;;;4.80;;
944;SDS011;459;48.676;9.034;2022-10-18T06:08:33;4.53;;;4.13;;
944;SDS011;459;48.676;9.034;2022-10-18T06:10:59;5.07;;;4.60;;
944;SDS011;459;48.676;9.034;2022-10-18T06:13:24;5.77;;;4.40;;
944;SDS011;459;48.676;9.034;2022-10-18T06:15:53;6.57;;;4.20;;
944;SDS011;459;48.676;9.034;2022-10-18T06:18:19;13.50;;;6.23;;
944;SDS011;459;48.676;9.034;2022-10-18T06:20:44;12.80;;;7.17;;
944;SDS011;459;48.676;9.034;2022-10-18T06:23:09;9.83;;;6.80;;
944;SDS011;459;48.676;9.034;2022-10-18T06:25:34;5.50;;;4.77;;
944;SDS011;459;48.676;9.034;2022-10-18T06:27:59;8.00;;;5.67;;
944;SDS011;459;48.676;9.034;2022-10-18T06:30:25;6.30;;;5.30;;
944;SDS011;459;48.676;9.034;2022-10-18T06:32:50;7.03;;;4.83;;
944;SDS011;459;48.676;9.034;2022-10-18T06:35:15;6.43;;;5.80;;
944;SDS011;459;48.676;9.034;2022-10-18T06:37:40;5.20;;;4.37;;
944;SDS011;459;48.676;9.034;2022-10-18T06:40:05;6.87;;;5.03;;
944;SDS011;459;48.676;9.034;2022-10-18T06:42:31;5.57;;;5.13;;
944;SDS011;459;48.676;9.034;2022-10-18T06:44:56;6.10;;;5.27;;
944;SDS011;459;48.676;9.034;2022-10-18T06:47:22;7.77;;;4.20;;
944;SDS011;459;48.676;9.034;2022-10-18T06:49:47;4.93;;;4.43;;
944;SDS011;459;48.676;9.034;2022-10-18T06:52:12;6.90;;;5.10;;
944;SDS011;459;48.676;9.034;2022-10-18T06:54:37;5.60;;;5.10;;
944;SDS011;459;48.676;9.034;2022-10-18T06:57:02;5.70;;;4.70;;
944;SDS011;459;48.676;9.034;2022-10-18T06:59:28;4.57;;;3.73;;
944;SDS011;459;48.676;9.034;2022-10-18T07:01:53;6.50;;;4.23;;
944;SDS011;459;48.676;9.034;2022-10-18T07:04:18;4.77;;;4.30;;
944;SDS011;459;48.676;9.034;2022-10-18T07:06:43;4.97;;;4.43;;
944;SDS011;459;48.676;9.034;2022-10-18T07:09:09;4.53;;;3.93;;
944;SDS011;459;48.676;9.034;2022-10-18T07:11:34;3.90;;;3.57;;
944;SDS011;459;48.676;9.034;2022-10-18T07:13:59;4.30;;;3.90;;
944;SDS011;459;48.676;9.034;2022-10-18T07:16:27;4.50;;;4.10;;
944;SDS011;459;48.676;9.034;2022-10-18T07:18:52;4.27;;;3.87;;
944;SDS011;459;48.676;9.034;2022-10-18T07:21:18;4.17;;;3.30;;
944;SDS011;459;48.676;9.034;2022-10-18T07:23:44;5.13;;;4.27;;
944;SDS011;459;48.676;9.034;2022-10-18T07:28:38;6.97;;;3.53;;
944;SDS011;459;48.676;9.034;2022-10-18T07:31:06;5.90;;;3.80;;
944;SDS011;459;48.676;9.034;2022-10-18T07:33:32;4.40;;;4.00;;
944;SDS011;459;48.676;9.034;2022-10-18T07:36:00;4.70;;;3.87;;
944;SDS011;459;48.676;9.034;2022-10-18T07:38:27;4.37;;;3.97;;
944;SDS011;459;48.676;9.034;2022-10-18T07:40:55;3.40;;;2.93;;
944;SDS011;459;48.676;9.034;2022-10-18T07:43:21;4.30;;;3.60;;
944;SDS011;459;48.676;9.034;2022-10-18T07:45:50;4.13;;;3.73;;
944;SDS011;459;48.676;9.034;2022-10-18T07:48:15;5.60;;;4.30;;
944;SDS011;459;48.676;9.034;2022-10-18T07:50:40;4.20;;;3.70;;
944;SDS011;459;48.676;9.034;2022-10-18T07:53:05;6.27;;;3.77;;
944;SDS011;459;48.676;9.034;2022-10-18T07:55:31;3.40;;;3.20;;
944;SDS011;459;48.676;9.034;2022-10-18T07:57:56;4.10;;;3.70;;
944;SDS011;459;48.676;9.034;2022-10-18T08:00:23;4.40;;;4.00;;
944;SDS011;459;48.676;9.034;2022-10-18T08:02:48;5.00;;;4.50;;
944;SDS011;459;48.676;9.034;2022-10-18T08:05:19;5.90;;;5.07;;
944;SDS011;459;48.676;9.034;2022-10-18T08:07:44;9.90;;;3.90;;
944;SDS011;459;48.676;9.034;2022-10-18T08:10:09;6.70;;;4.00;;
944;SDS011;459;48.676;9.034;2022-10-18T08:12:35;5.53;;;4.50;;
944;SDS011;459;48.676;9.034;2022-10-18T08:15:00;6.03;;;4.70;;
944;SDS011;459;48.676;9.034;2022-10-18T08:17:25;12.30;;;4.70;;
944;SDS011;459;48.676;9.034;2022-10-18T08:19:50;4.83;;;4.40;;
944;SDS011;459;48.676;9.034;2022-10-18T08:22:15;4.90;;;3.80;;
944;SDS011;459;48.676;9.034;2022-10-18T08:24:40;6.20;;;4.00;;
944;SDS011;459;48.676;9.034;2022-10-18T08:27:06;5.53;;;4.17;;
944;SDS011;459;48.676;9.034;2022-10-18T08:29:31;6.60;;;3.87;;
944;SDS011;459;48.676;9.034;2022-10-18T08:31:56;8.00;;;4.47;;
944;SDS011;459;48.676;9.034;2022-10-18T08:34:22;4.40;;;4.00;;
944;SDS011;459;48.676;9.034;2022-10-18T08:36:47;4.80;;;3.93;;
944;SDS011;459;48.676;9.034;2022-10-18T08:39:12;5.93;;;3.70;;
944;SDS011;459;48.676;9.034;2022-10-18T08:44:24;4.87;;;4.47;;
944;SDS011;459;48.676;9.034;2022-10-18T08:46:52;4.13;;;3.73;;
944;SDS011;459;48.676;9.034;2022-10-18T08:49:35;4.60;;;3.60;;
944;SDS011;459;48.676;9.034;2022-10-18T08:52:01;5.20;;;4.20;;
944;SDS011;459;48.676;9.034;2022-10-18T08:54:33;9.57;;;4.17;;
944;SDS011;459;48.676;9.034;2022-10-18T08:57:01;5.50;;;4.00;;
944;SDS011;459;48.676;9.034;2022-10-18T08:59:30;5.27;;;3.90;;
944;SDS011;459;48.676;9.034;2022-10-18T09:07:37;5.93;;;3.63;;
944;SDS011;459;48.676;9.034;2022-10-18T09:15:17;5.50;;;3.93;;
944;SDS011;459;48.676;9.034;2022-10-18T09:17:53;3.60;;;3.30;;
944;SDS011;459;48.676;9.034;2022-10-18T09:20:22;5.47;;;3.50;;
944;SDS011;459;48.676;9.034;2022-10-18T09:22:52;4.63;;;3.70;;
944;SDS011;459;48.676;9.034;2022-10-18T09:25:20;3.77;;;3.47;;
944;SDS011;459;48.676;9.034;2022-10-18T09:30:19;4.35;;;3.50;;
944;SDS011;459;48.676;9.034;2022-10-18T09:32:57;3.60;;;3.27;;
944;SDS011;459;48.676;9.034;2022-10-18T09:35:26;4.37;;;3.97;;
944;SDS011;459;48.676;9.034;2022-10-18T09:37:54;3.43;;;3.13;;
944;SDS011;459;48.676;9.034;2022-10-18T09:40:24;6.10;;;3.80;;
944;SDS011;459;48.676;9.034;2022-10-18T09:45:28;3.97;;;3.23;;
944;SDS011;459;48.676;9.034;2022-10-18T09:50:43;3.97;;;3.53;;
944;SDS011;459;48.676;9.034;2022-10-18T09:55:37;4.73;;;4.23;;
944;SDS011;459;48.676;9.034;2022-10-18T09:58:04;5.40;;;4.10;;
944;SDS011;459;48.676;9.034;2022-10-18T10:00:32;6.73;;;4.40;;
944;SDS011;459;48.676;9.034;2022-10-18T10:02:59;6.40;;;4.10;;
944;SDS011;459;48.676;9.034;2022-10-18T10:05:24;7.00;;;3.47;;
944;SDS011;459;48.676;9.034;2022-10-18T10:07:49;3.80;;;3.50;;
944;SDS011;459;48.676;9.034;2022-10-18T10:10:22;4.43;;;4.03;;
944;SDS011;459;48.676;9.034;2022-10-18T10:13:01;5.57;;;3.90;;
944;SDS011;459;48.676;9.034;2022-10-18T10:15:26;4.20;;;3.80;;
944;SDS011;459;48.676;9.034;2022-10-18T10:18:04;4.13;;;3.73;;
944;SDS011;459;48.676;9.034;2022-10-18T10:22:55;4.10;;;3.73;;
944;SDS011;459;48.676;9.034;2022-10-18T10:25:29;6.33;;;4.13;;
944;SDS011;459;48.676;9.034;2022-10-18T10:27:55;4.27;;;3.80;;
944;SDS011;459;48.676;9.034;2022-10-18T10:30:27;6.80;;;3.30;;
944;SDS011;459;48.676;9.034;2022-10-18T10:32:53;5.13;;;4.63;;
944;SDS011;459;48.676;9.034;2022-10-18T10:35:38;4.63;;;4.23;;
944;SDS011;459;48.676;9.034;2022-10-18T10:38:03;4.80;;;3.83;;
944;SDS011;459;48.676;9.034;2022-10-18T10:45:39;7.63;;;3.93;;
944;SDS011;459;48.676;9.034;2022-10-18T10:48:14;6.57;;;3.90;;
944;SDS011;459;48.676;9.034;2022-10-18T10:50:49;6.70;;;4.23;;
944;SDS011;459;48.676;9.034;2022-10-18T10:55:58;4.23;;;3.83;;
944;SDS011;459;48.676;9.034;2022-10-18T10:58:24;4.80;;;3.90;;
944;SDS011;459;48.676;9.034;2022-10-18T11:00:50;7.87;;;3.60;;
944;SDS011;459;48.676;9.034;2022-10-18T11:03:17;4.57;;;3.40;;
944;SDS011;459;48.676;9.034;2022-10-18T11:08:08;4.83;;;4.43;;
944;SDS011;459;48.676;9.034;2022-10-18T11:10:36;5.80;;;3.97;;
944;SDS011;459;48.676;9.034;2022-10-18T11:13:08;7.07;;;4.90;;
944;SDS011;459;48.676;9.034;2022-10-18T11:15:47;9.37;;;3.83;;
944;SDS011;459;48.676;9.034;2022-10-18T11:18:17;4.20;;;3.90;;
944;SDS011;459;48.676;9.034;2022-10-18T11:23:32;5.53;;;3.83;;
944;SDS011;459;48.676;9.034;2022-10-18T11:30:56;5.90;;;3.57;;
944;SDS011;459;48.676;9.034;2022-10-18T11:36:01;5.30;;;3.60;;
944;SDS011;459;48.676;9.034;2022-10-18T11:38:38;5.13;;;3.00;;
944;SDS011;459;48.676;9.034;2022-10-18T11:41:14;4.80;;;3.60;;
944;SDS011;459;48.676;9.034;2022-10-18T11:46:07;5.73;;;4.00;;
944;SDS011;459;48.676;9.034;2022-10-18T11:53:34;2.57;;;2.37;;
944;SDS011;459;48.676;9.034;2022-10-18T11:56:19;2.87;;;2.57;;
944;SDS011;459;48.676;9.034;2022-10-18T12:01:29;3.23;;;2.57;;
944;SDS011;459;48.676;9.034;2022-10-18T12:04:07;3.43;;;2.53;;
944;SDS011;459;48.676;9.034;2022-10-18T12:06:38;4.70;;;2.47;;
944;SDS011;459;48.676;9.034;2022-10-18T12:09:07;2.60;;;2.40;;
944;SDS011;459;48.676;9.034;2022-10-18T12:11:43;3.10;;;2.80;;
944;SDS011;459;48.676;9.034;2022-10-18T12:14:54;4.73;;;2.60;;
944;SDS011;459;48.676;9.034;2022-10-18T12:17:01;2.80;;;2.20;;
944;SDS011;459;48.676;9.034;2022-10-18T12:19:27;4.03;;;2.43;;
944;SDS011;459;48.676;9.034;2022-10-18T12:21:57;3.30;;;2.23;;
944;SDS011;459;48.676;9.034;2022-10-18T12:24:27;4.03;;;2.30;;
944;SDS011;459;48.676;9.034;2022-10-18T12:26:54;2.60;;;2.40;;
944;SDS011;459;48.676;9.034;2022-10-18T12:29:29;1.90;;;1.70;;
944;SDS011;459;48.676;9.034;2022-10-18T12:31:58;3.93;;;2.17;;
944;SDS011;459;48.676;9.034;2022-10-18T12:37:13;2.43;;;1.90;;
944;SDS011;459;48.676;9.034;2022-10-18T12:39:46;3.00;;;1.93;;
944;SDS011;459;48.676;9.034;2022-10-18T12:42:19;3.30;;;1.90;;
944;SDS011;459;48.676;9.034;2022-10-18T12:44:45;2.63;;;1.93;;
944;SDS011;459;48.676;9.034;2022-10-18T12:47:19;2.60;;;2.30;;
944;SDS011;459;48.676;9.034;2022-10-18T12:49:45;3.00;;;2.00;;
944;SDS011;459;48.676;9.034;2022-10-18T12:52:20;2.77;;;1.80;;
944;SDS011;459;48.676;9.034;2022-10-18T12:57:27;2.30;;;1.47;;
944;SDS011;459;48.676;9.034;2022-10-18T13:10:57;1.63;;;1.53;;
944;SDS011;459;48.676;9.034;2022-10-18T13:18:57;3.30;;;2.10;;
944;SDS011;459;48.676;9.034;2022-10-18T13:21:42;3.37;;;2.33;;
944;SDS011;459;48.676;9.034;2022-10-18T13:24:24;6.10;;;2.57;;
944;SDS011;459;48.676;9.034;2022-10-18T13:32:22;4.80;;;2.67;;
944;SDS011;459;48.676;9.034;2022-10-18T13:34:48;2.63;;;2.07;;
944;SDS011;459;48.676;9.034;2022-10-18T13:39:39;2.87;;;2.00;;
944;SDS011;459;48.676;9.034;2022-10-18T13:44:39;2.93;;;2.63;;
944;SDS011;459;48.676;9.034;2022-10-18T13:49:47;2.60;;;2.40;;
944;SDS011;459;48.676;9.034;2022-10-18T14:11:01;3.40;;;2.73;;
944;SDS011;459;48.676;9.034;2022-10-18T14:14:29;2.33;;;2.00;;
944;SDS011;459;48.676;9.034;2022-10-18T14:16:30;3.43;;;2.30;;
944;SDS011;459;48.676;9.034;2022-10-18T14:19:00;3.37;;;2.50;;
944;SDS011;459;48.676;9.034;2022-10-18T14:21:29;2.60;;;2.40;;
944;SDS011;459;48.676;9.034;2022-10-18T14:23:57;2.50;;;2.30;;
944;SDS011;459;48.676;9.034;2022-10-18T14:26:23;2.33;;;2.13;;
944;SDS011;459;48.676;9.034;2022-10-18T14:29:04;3.93;;;1.73;;
944;SDS011;459;48.676;9.034;2022-10-18T14:31:29;2.27;;;2.07;;
944;SDS011;459;48.676;9.034;2022-10-18T14:33:55;3.20;;;2.20;;
944;SDS011;459;48.676;9.034;2022-10-18T14:36:21;6.40;;;2.77;;
944;SDS011;459;48.676;9.034;2022-10-18T14:41:21;4.23;;;2.23;;
944;SDS011;459;48.676;9.034;2022-10-18T14:43:46;1.83;;;1.73;;
944;SDS011;459;48.676;9.034;2022-10-18T14:48:40;3.30;;;2.20;;
944;SDS011;459;48.676;9.034;2022-10-18T14:51:06;3.40;;;2.37;;
944;SDS011;459;48.676;9.034;2022-10-18T14:53:36;4.77;;;1.90;;
944;SDS011;459;48.676;9.034;2022-10-18T14:56:02;4.80;;;2.70;;
944;SDS011;459;48.676;9.034;2022-10-18T14:58:31;2.77;;;2.27;;
944;SDS011;459;48.676;9.034;2022-10-18T15:00:57;3.67;;;1.73;;
944;SDS011;459;48.676;9.034;2022-10-18T15:03:23;3.13;;;2.57;;
944;SDS011;459;48.676;9.034;2022-10-18T15:05:59;4.40;;;2.30;;
944;SDS011;459;48.676;9.034;2022-10-18T15:08:26;7.70;;;2.10;;
944;SDS011;459;48.676;9.034;2022-10-18T15:10:53;2.40;;;2.10;;
944;SDS011;459;48.676;9.034;2022-10-18T15:13:19;2.90;;;1.83;;
944;SDS011;459;48.676;9.034;2022-10-18T15:15:44;2.40;;;1.60;;
944;SDS011;459;48.676;9.034;2022-10-18T15:18:19;3.20;;;1.83;;
944;SDS011;459;48.676;9.034;2022-10-18T15:20:44;2.87;;;2.30;;
944;SDS011;459;48.676;9.034;2022-10-18T15:25:47;5.80;;;2.30;;
944;SDS011;459;48.676;9.034;2022-10-18T15:28:22;5.10;;;2.20;;
944;SDS011;459;48.676;9.034;2022-10-18T15:30:50;2.50;;;2.27;;
944;SDS011;459;48.676;9.034;2022-10-18T15:33:19;3.00;;;2.47;;
944;SDS011;459;48.676;9.034;2022-10-18T15:35:45;2.87;;;2.40;;
944;SDS011;459;48.676;9.034;2022-10-18T15:38:14;3.40;;;2.53;;
944;SDS011;459;48.676;9.034;2022-10-18T15:40:40;4.63;;;4.03;;
944;SDS011;459;48.676;9.034;2022-10-18T15:43:50;3.60;;;2.53;;
944;SDS011;459;48.676;9.034;2022-10-18T15:45:54;2.90;;;2.17;;
944;SDS011;459;48.676;9.034;2022-10-18T15:48:24;2.73;;;2.53;;
944;SDS011;459;48.676;9.034;2022-10-18T15:50:53;3.10;;;2.37;;
944;SDS011;459;48.676;9.034;2022-10-18T15:55:44;7.65;;;2.80;;
944;SDS011;459;48.676;9.034;2022-10-18T15:58:11;3.70;;;3.40;;
944;SDS011;459;48.676;9.034;2022-10-18T16:00:37;3.70;;;2.60;;
944;SDS011;459;48.676;9.034;2022-10-18T16:03:02;4.27;;;3.10;;
944;SDS011;459;48.676;9.034;2022-10-18T16:05:27;6.60;;;3.77;;
944;SDS011;459;48.676;9.034;2022-10-18T16:07:53;4.77;;;3.37;;
944;SDS011;459;48.676;9.034;2022-10-18T16:10:18;8.53;;;3.80;;
944;SDS011;459;48.676;9.034;2022-10-18T16:12:45;4.70;;;3.00;;
944;SDS011;459;48.676;9.034;2022-10-18T16:15:10;7.53;;;2.93;;
944;SDS011;459;48.676;9.034;2022-10-18T16:17:35;4.97;;;3.93;;
944;SDS011;459;48.676;9.034;2022-10-18T16:20:01;3.67;;;3.37;;
944;SDS011;459;48.676;9.034;2022-10-18T16:22:26;7.27;;;3.70;;
944;SDS011;459;48.676;9.034;2022-10-18T16:24:51;4.20;;;3.63;;
944;SDS011;459;48.676;9.034;2022-10-18T16:27:17;3.43;;;3.13;;
944;SDS011;459;48.676;9.034;2022-10-18T16:29:42;3.57;;;3.10;;
944;SDS011;459;48.676;9.034;2022-10-18T16:32:07;4.17;;;3.57;;
944;SDS011;459;48.676;9.034;2022-10-18T16:34:32;4.83;;;3.73;;
944;SDS011;459;48.676;9.034;2022-10-18T16:36:57;7.33;;;4.07;;
944;SDS011;459;48.676;9.034;2022-10-18T16:39:23;8.30;;;3.80;;
944;SDS011;459;48.676;9.034;2022-10-18T16:41:48;3.63;;;3.30;;
944;SDS011;459;48.676;9.034;2022-10-18T16:44:15;3.80;;;3.50;;
944;SDS011;459;48.676;9.034;2022-10-18T16:46:41;4.63;;;4.23;;
944;SDS011;459;48.676;9.034;2022-10-18T16:49:09;5.10;;;4.00;;
944;SDS011;459;48.676;9.034;2022-10-18T16:51:40;5.27;;;3.97;;
944;SDS011;459;48.676;9.034;2022-10-18T16:54:06;7.00;;;3.93;;
944;SDS011;459;48.676;9.034;2022-10-18T16:56:32;4.80;;;4.40;;
944;SDS011;459;48.676;9.034;2022-10-18T16:58:58;4.97;;;4.43;;
944;SDS011;459;48.676;9.034;2022-10-18T17:01:23;5.17;;;3.80;;
944;SDS011;459;48.676;9.034;2022-10-18T17:03:49;4.60;;;4.20;;
944;SDS011;459;48.676;9.034;2022-10-18T17:06:21;4.10;;;3.70;;
944;SDS011;459;48.676;9.034;2022-10-18T17:08:47;5.13;;;4.60;;
944;SDS011;459;48.676;9.034;2022-10-18T17:11:14;6.43;;;4.63;;
944;SDS011;459;48.676;9.034;2022-10-18T17:13:39;4.40;;;4.00;;
944;SDS011;459;48.676;9.034;2022-10-18T17:16:05;4.20;;;3.83;;
944;SDS011;459;48.676;9.034;2022-10-18T17:18:30;6.83;;;4.93;;
944;SDS011;459;48.676;9.034;2022-10-18T17:20:59;6.70;;;5.10;;
944;SDS011;459;48.676;9.034;2022-10-18T17:23:27;5.63;;;5.13;;
944;SDS011;459;48.676;9.034;2022-10-18T17:25:52;5.83;;;5.23;;
944;SDS011;459;48.676;9.034;2022-10-18T17:28:18;6.33;;;5.30;;
944;SDS011;459;48.676;9.034;2022-10-18T17:30:43;8.47;;;6.50;;
944;SDS011;459;48.676;9.034;2022-10-18T17:33:09;6.43;;;5.50;;
944;SDS011;459;48.676;9.034;2022-10-18T17:35:34;5.93;;;5.37;;
944;SDS011;459;48.676;9.034;2022-10-18T17:38:01;4.87;;;4.47;;
944;SDS011;459;48.676;9.034;2022-10-18T17:40:26;11.53;;;7.80;;
944;SDS011;459;48.676;9.034;2022-10-18T17:42:52;12.13;;;9.73;;
944;SDS011;459;48.676;9.034;2022-10-18T17:45:17;15.93;;;9.53;;
944;SDS011;459;48.676;9.034;2022-10-18T17:47:43;13.13;;;8.40;;
944;SDS011;459;48.676;9.034;2022-10-18T17:50:08;6.97;;;6.27;;
944;SDS011;459;48.676;9.034;2022-10-18T17:52:33;6.10;;;5.20;;
944;SDS011;459;48.676;9.034;2022-10-18T17:54:58;10.17;;;4.90;;
944;SDS011;459;48.676;9.034;2022-10-18T17:57:24;6.70;;;4.80;;
944;SDS011;459;48.676;9.034;2022-10-18T17:59:49;5.73;;;5.17;;
944;SDS011;459;48.676;9.034;2022-10-18T18:02:14;6.07;;;4.40;;
944;SDS011;459;48.676;9.034;2022-10-18T18:04:39;5.73;;;5.10;;
944;SDS011;459;48.676;9.034;2022-10-18T18:07:04;6.93;;;4.40;;